sensor_id;sensor_type;location;lat;lon;timestamp;P1;durP1;ratioP1;P2;durP2;ratioP2
23578;SDS011;11967;50.852;4.400;2023-04-25T00:01:39;20.30;;;5.63;;
23578;SDS011;11967;50.852;4.400;2023-04-25T00:04:05;19.52;;;4.93;;
23578;SDS011;11967;50.852;4.400;2023-04-25T00:06:32;19.85;;;4.45;;
23578;SDS011;11967;50.852;4.400;2023-04-25T00:09:01;19.67;;;4.40;;
23578;SDS011;11967;50.852;4.400;2023-04-25T00:11:32;16.48;;;4.07;;
23578;SDS011;11967;50.852;4.400;2023-04-25T00:13:58;16.42;;;3.95;;
23578;SDS011;11967;50.852;4.400;2023-04-25T00:16:26;18.75;;;3.88;;
23578;SDS011;11967;50.852;4.400;2023-04-25T00:18:53;20.83;;;4.32;;
23578;SDS011;11967;50.852;4.400;2023-04-25T00:21:20;26.55;;;4.63;;
23578;SDS011;11967;50.852;4.400;2023-04-25T00:23:46;20.13;;;4.63;;
23578;SDS011;11967;50.852;4.400;2023-04-25T00:26:12;16.02;;;4.28;;
23578;SDS011;11967;50.852;4.400;2023-04-25T00:28:38;17.35;;;4.05;;
23578;SDS011;11967;50.852;4.400;2023-04-25T00:31:06;19.10;;;4.72;;
23578;SDS011;11967;50.852;4.400;2023-04-25T00:33:31;21.60;;;4.82;;
23578;SDS011;11967;50.852;4.400;2023-04-25T00:35:57;19.73;;;4.47;;
23578;SDS011;11967;50.852;4.400;2023-04-25T00:38:24;18.88;;;4.63;;
23578;SDS011;11967;50.852;4.400;2023-04-25T00:40:49;18.60;;;4.32;;
23578;SDS011;11967;50.852;4.400;2023-04-25T00:43:15;20.73;;;4.43;;
23578;SDS011;11967;50.852;4.400;2023-04-25T00:45:41;20.63;;;4.43;;
23578;SDS011;11967;50.852;4.400;2023-04-25T00:48:08;19.52;;;4.50;;
23578;SDS011;11967;50.852;4.400;2023-04-25T00:50:34;20.80;;;5.00;;
23578;SDS011;11967;50.852;4.400;2023-04-25T00:53:03;24.10;;;4.70;;
23578;SDS011;11967;50.852;4.400;2023-04-25T00:55:30;19.98;;;5.03;;
23578;SDS011;11967;50.852;4.400;2023-04-25T00:57:57;23.25;;;4.80;;
23578;SDS011;11967;50.852;4.400;2023-04-25T01:00:23;19.05;;;4.75;;
23578;SDS011;11967;50.852;4.400;2023-04-25T01:02:50;19.38;;;4.65;;
23578;SDS011;11967;50.852;4.400;2023-04-25T01:05:16;19.13;;;4.93;;
23578;SDS011;11967;50.852;4.400;2023-04-25T01:07:43;25.42;;;5.60;;
23578;SDS011;11967;50.852;4.400;2023-04-25T01:10:10;23.48;;;5.25;;
23578;SDS011;11967;50.852;4.400;2023-04-25T01:12:36;21.17;;;5.25;;
23578;SDS011;11967;50.852;4.400;2023-04-25T01:15:01;22.23;;;4.65;;
23578;SDS011;11967;50.852;4.400;2023-04-25T01:17:28;21.30;;;4.65;;
23578;SDS011;11967;50.852;4.400;2023-04-25T01:19:54;24.27;;;5.18;;
23578;SDS011;11967;50.852;4.400;2023-04-25T01:22:20;22.75;;;5.05;;
23578;SDS011;11967;50.852;4.400;2023-04-25T01:24:46;26.30;;;5.32;;
23578;SDS011;11967;50.852;4.400;2023-04-25T01:27:11;23.15;;;4.97;;
23578;SDS011;11967;50.852;4.400;2023-04-25T01:29:37;19.95;;;5.00;;
23578;SDS011;11967;50.852;4.400;2023-04-25T01:32:05;22.65;;;5.10;;
23578;SDS011;11967;50.852;4.400;2023-04-25T01:34:31;19.67;;;4.75;;
23578;SDS011;11967;50.852;4.400;2023-04-25T01:36:57;28.98;;;6.15;;
23578;SDS011;11967;50.852;4.400;2023-04-25T01:39:26;18.25;;;5.03;;
23578;SDS011;11967;50.852;4.400;2023-04-25T01:41:52;23.08;;;5.50;;
23578;SDS011;11967;50.852;4.400;2023-04-25T01:44:18;17.73;;;4.60;;
23578;SDS011;11967;50.852;4.400;2023-04-25T01:46:44;19.92;;;5.22;;
23578;SDS011;11967;50.852;4.400;2023-04-25T01:49:09;23.33;;;5.25;;
23578;SDS011;11967;50.852;4.400;2023-04-25T01:51:35;19.35;;;4.95;;
23578;SDS011;11967;50.852;4.400;2023-04-25T01:54:01;24.90;;;5.85;;
23578;SDS011;11967;50.852;4.400;2023-04-25T01:56:30;19.42;;;4.97;;
23578;SDS011;11967;50.852;4.400;2023-04-25T01:58:57;19.73;;;5.13;;
23578;SDS011;11967;50.852;4.400;2023-04-25T02:01:23;25.98;;;5.32;;
23578;SDS011;11967;50.852;4.400;2023-04-25T02:03:48;23.95;;;5.28;;
23578;SDS011;11967;50.852;4.400;2023-04-25T02:06:14;19.98;;;5.30;;
23578;SDS011;11967;50.852;4.400;2023-04-25T02:08:40;19.83;;;4.53;;
23578;SDS011;11967;50.852;4.400;2023-04-25T02:11:05;20.30;;;4.70;;
23578;SDS011;11967;50.852;4.400;2023-04-25T02:13:31;18.10;;;4.50;;
23578;SDS011;11967;50.852;4.400;2023-04-25T02:15:57;23.17;;;5.18;;
23578;SDS011;11967;50.852;4.400;2023-04-25T02:18:22;23.25;;;5.55;;
23578;SDS011;11967;50.852;4.400;2023-04-25T02:20:48;23.10;;;5.75;;
23578;SDS011;11967;50.852;4.400;2023-04-25T02:23:14;20.88;;;5.13;;
23578;SDS011;11967;50.852;4.400;2023-04-25T02:25:45;22.60;;;4.95;;
23578;SDS011;11967;50.852;4.400;2023-04-25T02:28:10;24.58;;;5.50;;
23578;SDS011;11967;50.852;4.400;2023-04-25T02:30:36;16.83;;;5.35;;
23578;SDS011;11967;50.852;4.400;2023-04-25T02:33:02;29.52;;;5.65;;
23578;SDS011;11967;50.852;4.400;2023-04-25T02:35:28;19.80;;;5.00;;
23578;SDS011;11967;50.852;4.400;2023-04-25T02:37:54;19.98;;;5.05;;
23578;SDS011;11967;50.852;4.400;2023-04-25T02:40:19;21.65;;;5.30;;
23578;SDS011;11967;50.852;4.400;2023-04-25T02:42:45;18.33;;;4.90;;
23578;SDS011;11967;50.852;4.400;2023-04-25T02:45:11;21.50;;;5.35;;
23578;SDS011;11967;50.852;4.400;2023-04-25T02:47:37;19.13;;;4.90;;
23578;SDS011;11967;50.852;4.400;2023-04-25T02:50:03;22.73;;;4.78;;
23578;SDS011;11967;50.852;4.400;2023-04-25T02:52:29;24.33;;;4.85;;
23578;SDS011;11967;50.852;4.400;2023-04-25T02:54:54;18.92;;;4.80;;
23578;SDS011;11967;50.852;4.400;2023-04-25T02:57:20;19.20;;;4.75;;
23578;SDS011;11967;50.852;4.400;2023-04-25T02:59:46;21.40;;;5.03;;
23578;SDS011;11967;50.852;4.400;2023-04-25T03:02:11;20.48;;;4.55;;
23578;SDS011;11967;50.852;4.400;2023-04-25T03:04:37;20.83;;;5.05;;
23578;SDS011;11967;50.852;4.400;2023-04-25T03:07:03;24.67;;;5.07;;
23578;SDS011;11967;50.852;4.400;2023-04-25T03:09:29;23.75;;;5.30;;
23578;SDS011;11967;50.852;4.400;2023-04-25T03:11:55;23.85;;;5.40;;
23578;SDS011;11967;50.852;4.400;2023-04-25T03:14:21;20.95;;;5.25;;
23578;SDS011;11967;50.852;4.400;2023-04-25T03:16:46;17.95;;;5.32;;
23578;SDS011;11967;50.852;4.400;2023-04-25T03:19:12;18.73;;;4.82;;
23578;SDS011;11967;50.852;4.400;2023-04-25T03:21:40;23.60;;;5.00;;
23578;SDS011;11967;50.852;4.400;2023-04-25T03:24:06;19.52;;;5.45;;
23578;SDS011;11967;50.852;4.400;2023-04-25T03:26:32;21.95;;;5.63;;
23578;SDS011;11967;50.852;4.400;2023-04-25T03:28:58;22.45;;;5.28;;
23578;SDS011;11967;50.852;4.400;2023-04-25T03:31:23;23.98;;;5.13;;
23578;SDS011;11967;50.852;4.400;2023-04-25T03:33:49;25.08;;;5.15;;
23578;SDS011;11967;50.852;4.400;2023-04-25T03:36:16;18.90;;;4.53;;
23578;SDS011;11967;50.852;4.400;2023-04-25T03:38:45;21.52;;;4.65;;
23578;SDS011;11967;50.852;4.400;2023-04-25T03:41:11;20.25;;;4.95;;
23578;SDS011;11967;50.852;4.400;2023-04-25T03:43:37;16.95;;;4.60;;
23578;SDS011;11967;50.852;4.400;2023-04-25T03:46:02;27.15;;;4.95;;
23578;SDS011;11967;50.852;4.400;2023-04-25T03:48:28;24.50;;;4.75;;
23578;SDS011;11967;50.852;4.400;2023-04-25T03:50:54;17.90;;;4.57;;
23578;SDS011;11967;50.852;4.400;2023-04-25T03:53:20;21.33;;;5.25;;
23578;SDS011;11967;50.852;4.400;2023-04-25T03:55:45;28.33;;;7.97;;
23578;SDS011;11967;50.852;4.400;2023-04-25T03:58:11;19.08;;;5.43;;
23578;SDS011;11967;50.852;4.400;2023-04-25T04:00:44;22.00;;;4.55;;
23578;SDS011;11967;50.852;4.400;2023-04-25T04:03:13;17.30;;;4.35;;
23578;SDS011;11967;50.852;4.400;2023-04-25T04:05:46;24.52;;;5.47;;
23578;SDS011;11967;50.852;4.400;2023-04-25T04:08:18;23.73;;;5.20;;
23578;SDS011;11967;50.852;4.400;2023-04-25T04:10:44;20.77;;;4.50;;
23578;SDS011;11967;50.852;4.400;2023-04-25T04:13:14;25.17;;;5.30;;
23578;SDS011;11967;50.852;4.400;2023-04-25T04:15:40;20.08;;;4.63;;
23578;SDS011;11967;50.852;4.400;2023-04-25T04:18:08;18.65;;;4.38;;
23578;SDS011;11967;50.852;4.400;2023-04-25T04:20:35;19.90;;;4.80;;
23578;SDS011;11967;50.852;4.400;2023-04-25T04:23:01;26.13;;;4.97;;
23578;SDS011;11967;50.852;4.400;2023-04-25T04:25:29;19.23;;;5.30;;
23578;SDS011;11967;50.852;4.400;2023-04-25T04:27:55;21.27;;;5.25;;
23578;SDS011;11967;50.852;4.400;2023-04-25T04:30:24;19.08;;;5.38;;
23578;SDS011;11967;50.852;4.400;2023-04-25T04:32:50;22.65;;;6.47;;
23578;SDS011;11967;50.852;4.400;2023-04-25T04:35:16;21.80;;;5.95;;
23578;SDS011;11967;50.852;4.400;2023-04-25T04:37:43;18.88;;;5.18;;
23578;SDS011;11967;50.852;4.400;2023-04-25T04:40:10;22.83;;;5.43;;
23578;SDS011;11967;50.852;4.400;2023-04-25T04:42:36;21.67;;;5.00;;
23578;SDS011;11967;50.852;4.400;2023-04-25T04:45:09;22.40;;;5.97;;
23578;SDS011;11967;50.852;4.400;2023-04-25T04:47:43;24.25;;;5.53;;
23578;SDS011;11967;50.852;4.400;2023-04-25T04:50:17;18.67;;;4.82;;
23578;SDS011;11967;50.852;4.400;2023-04-25T04:52:43;17.55;;;4.78;;
23578;SDS011;11967;50.852;4.400;2023-04-25T04:55:09;17.38;;;5.40;;
23578;SDS011;11967;50.852;4.400;2023-04-25T04:57:35;16.70;;;5.32;;
23578;SDS011;11967;50.852;4.400;2023-04-25T05:00:00;21.88;;;5.90;;
23578;SDS011;11967;50.852;4.400;2023-04-25T05:02:29;24.23;;;5.75;;
23578;SDS011;11967;50.852;4.400;2023-04-25T05:04:55;25.83;;;5.60;;
23578;SDS011;11967;50.852;4.400;2023-04-25T05:07:21;21.05;;;5.55;;
23578;SDS011;11967;50.852;4.400;2023-04-25T05:09:47;17.52;;;5.00;;
23578;SDS011;11967;50.852;4.400;2023-04-25T05:12:12;23.58;;;4.90;;
23578;SDS011;11967;50.852;4.400;2023-04-25T05:14:38;16.73;;;4.68;;
23578;SDS011;11967;50.852;4.400;2023-04-25T05:17:03;26.88;;;5.28;;
23578;SDS011;11967;50.852;4.400;2023-04-25T05:19:33;18.98;;;5.47;;
23578;SDS011;11967;50.852;4.400;2023-04-25T05:21:59;17.92;;;5.25;;
23578;SDS011;11967;50.852;4.400;2023-04-25T05:24:25;18.13;;;4.90;;
23578;SDS011;11967;50.852;4.400;2023-04-25T05:26:50;21.58;;;5.90;;
23578;SDS011;11967;50.852;4.400;2023-04-25T05:29:16;16.05;;;5.55;;
23578;SDS011;11967;50.852;4.400;2023-04-25T05:31:44;21.20;;;4.63;;
23578;SDS011;11967;50.852;4.400;2023-04-25T05:34:10;16.60;;;4.75;;
23578;SDS011;11967;50.852;4.400;2023-04-25T05:36:35;17.63;;;4.75;;
23578;SDS011;11967;50.852;4.400;2023-04-25T05:39:01;17.02;;;4.28;;
23578;SDS011;11967;50.852;4.400;2023-04-25T05:41:28;13.80;;;4.07;;
23578;SDS011;11967;50.852;4.400;2023-04-25T05:43:54;16.30;;;4.18;;
23578;SDS011;11967;50.852;4.400;2023-04-25T05:46:19;14.90;;;3.75;;
23578;SDS011;11967;50.852;4.400;2023-04-25T05:48:45;17.95;;;3.95;;
23578;SDS011;11967;50.852;4.400;2023-04-25T05:51:12;15.52;;;4.45;;
23578;SDS011;11967;50.852;4.400;2023-04-25T05:53:38;24.10;;;4.35;;
23578;SDS011;11967;50.852;4.400;2023-04-25T05:56:03;17.90;;;4.07;;
23578;SDS011;11967;50.852;4.400;2023-04-25T05:58:29;15.57;;;4.00;;
23578;SDS011;11967;50.852;4.400;2023-04-25T06:00:55;12.63;;;4.25;;
23578;SDS011;11967;50.852;4.400;2023-04-25T06:03:21;13.57;;;4.22;;
23578;SDS011;11967;50.852;4.400;2023-04-25T06:05:47;122.53;;;53.35;;
23578;SDS011;11967;50.852;4.400;2023-04-25T06:08:12;179.63;;;84.22;;
23578;SDS011;11967;50.852;4.400;2023-04-25T06:10:38;89.07;;;38.08;;
23578;SDS011;11967;50.852;4.400;2023-04-25T06:13:04;64.78;;;26.92;;
23578;SDS011;11967;50.852;4.400;2023-04-25T06:15:30;50.53;;;19.65;;
23578;SDS011;11967;50.852;4.400;2023-04-25T06:17:57;64.20;;;26.33;;
23578;SDS011;11967;50.852;4.400;2023-04-25T06:20:23;90.75;;;39.65;;
23578;SDS011;11967;50.852;4.400;2023-04-25T06:22:52;117.60;;;53.72;;
23578;SDS011;11967;50.852;4.400;2023-04-25T06:25:24;77.50;;;31.88;;
23578;SDS011;11967;50.852;4.400;2023-04-25T06:27:50;52.05;;;20.75;;
23578;SDS011;11967;50.852;4.400;2023-04-25T06:30:15;28.70;;;10.98;;
23578;SDS011;11967;50.852;4.400;2023-04-25T06:32:43;25.48;;;7.95;;
23578;SDS011;11967;50.852;4.400;2023-04-25T06:35:09;22.02;;;7.28;;
23578;SDS011;11967;50.852;4.400;2023-04-25T06:37:37;21.48;;;7.30;;
23578;SDS011;11967;50.852;4.400;2023-04-25T06:40:05;20.85;;;7.25;;
23578;SDS011;11967;50.852;4.400;2023-04-25T06:42:32;26.85;;;7.38;;
23578;SDS011;11967;50.852;4.400;2023-04-25T06:44:57;24.45;;;6.75;;
23578;SDS011;11967;50.852;4.400;2023-04-25T06:47:23;21.55;;;6.43;;
23578;SDS011;11967;50.852;4.400;2023-04-25T06:49:49;22.15;;;5.57;;
23578;SDS011;11967;50.852;4.400;2023-04-25T06:52:15;24.67;;;5.60;;
23578;SDS011;11967;50.852;4.400;2023-04-25T06:54:42;22.05;;;4.65;;
23578;SDS011;11967;50.852;4.400;2023-04-25T06:57:08;23.63;;;4.30;;
23578;SDS011;11967;50.852;4.400;2023-04-25T06:59:34;50.65;;;18.65;;
23578;SDS011;11967;50.852;4.400;2023-04-25T07:02:00;126.40;;;55.38;;
23578;SDS011;11967;50.852;4.400;2023-04-25T07:04:25;132.02;;;59.03;;
23578;SDS011;11967;50.852;4.400;2023-04-25T07:06:51;67.78;;;26.65;;
23578;SDS011;11967;50.852;4.400;2023-04-25T07:09:17;52.40;;;24.08;;
23578;SDS011;11967;50.852;4.400;2023-04-25T07:11:42;58.45;;;23.00;;
23578;SDS011;11967;50.852;4.400;2023-04-25T07:14:08;57.60;;;18.40;;
23578;SDS011;11967;50.852;4.400;2023-04-25T07:16:34;69.35;;;18.67;;
23578;SDS011;11967;50.852;4.400;2023-04-25T07:18:59;81.13;;;21.13;;
23578;SDS011;11967;50.852;4.400;2023-04-25T07:21:25;70.13;;;17.73;;
23578;SDS011;11967;50.852;4.400;2023-04-25T07:23:51;41.47;;;10.43;;
23578;SDS011;11967;50.852;4.400;2023-04-25T07:26:16;28.77;;;8.43;;
23578;SDS011;11967;50.852;4.400;2023-04-25T07:28:42;52.88;;;13.50;;
23578;SDS011;11967;50.852;4.400;2023-04-25T07:31:08;32.20;;;7.88;;
23578;SDS011;11967;50.852;4.400;2023-04-25T07:33:34;19.88;;;5.75;;
23578;SDS011;11967;50.852;4.400;2023-04-25T07:36:00;26.85;;;6.55;;
23578;SDS011;11967;50.852;4.400;2023-04-25T07:38:26;41.55;;;8.82;;
23578;SDS011;11967;50.852;4.400;2023-04-25T07:40:54;36.17;;;8.63;;
23578;SDS011;11967;50.852;4.400;2023-04-25T07:43:19;27.95;;;5.93;;
23578;SDS011;11967;50.852;4.400;2023-04-25T07:45:45;29.92;;;6.57;;
23578;SDS011;11967;50.852;4.400;2023-04-25T07:48:16;27.30;;;5.32;;
23578;SDS011;11967;50.852;4.400;2023-04-25T07:50:43;20.25;;;4.18;;
23578;SDS011;11967;50.852;4.400;2023-04-25T07:53:09;17.13;;;4.25;;
23578;SDS011;11967;50.852;4.400;2023-04-25T07:55:38;17.88;;;4.13;;
23578;SDS011;11967;50.852;4.400;2023-04-25T07:58:08;16.83;;;4.07;;
23578;SDS011;11967;50.852;4.400;2023-04-25T08:00:34;12.77;;;4.03;;
23578;SDS011;11967;50.852;4.400;2023-04-25T08:03:00;45.30;;;16.13;;
23578;SDS011;11967;50.852;4.400;2023-04-25T08:05:26;67.07;;;26.85;;
23578;SDS011;11967;50.852;4.400;2023-04-25T08:07:53;33.08;;;10.75;;
23578;SDS011;11967;50.852;4.400;2023-04-25T08:10:18;17.38;;;5.30;;
23578;SDS011;11967;50.852;4.400;2023-04-25T08:12:44;16.25;;;4.05;;
23578;SDS011;11967;50.852;4.400;2023-04-25T08:15:10;18.20;;;4.30;;
23578;SDS011;11967;50.852;4.400;2023-04-25T08:17:36;21.55;;;4.35;;
23578;SDS011;11967;50.852;4.400;2023-04-25T08:20:01;14.10;;;3.75;;
23578;SDS011;11967;50.852;4.400;2023-04-25T08:22:30;16.30;;;3.83;;
23578;SDS011;11967;50.852;4.400;2023-04-25T08:24:58;17.80;;;4.30;;
23578;SDS011;11967;50.852;4.400;2023-04-25T08:27:24;18.33;;;3.83;;
23578;SDS011;11967;50.852;4.400;2023-04-25T08:29:50;11.82;;;3.33;;
23578;SDS011;11967;50.852;4.400;2023-04-25T08:32:16;21.77;;;4.00;;
23578;SDS011;11967;50.852;4.400;2023-04-25T08:34:41;13.20;;;3.63;;
23578;SDS011;11967;50.852;4.400;2023-04-25T08:37:09;15.32;;;3.60;;
23578;SDS011;11967;50.852;4.400;2023-04-25T08:39:35;14.60;;;3.47;;
23578;SDS011;11967;50.852;4.400;2023-04-25T08:42:02;12.25;;;3.30;;
23578;SDS011;11967;50.852;4.400;2023-04-25T08:44:33;12.40;;;3.20;;
23578;SDS011;11967;50.852;4.400;2023-04-25T08:47:01;10.23;;;3.08;;
23578;SDS011;11967;50.852;4.400;2023-04-25T08:49:34;17.25;;;3.67;;
23578;SDS011;11967;50.852;4.400;2023-04-25T08:52:00;12.55;;;3.42;;
23578;SDS011;11967;50.852;4.400;2023-04-25T08:54:29;10.07;;;3.38;;
23578;SDS011;11967;50.852;4.400;2023-04-25T08:56:56;14.15;;;3.15;;
23578;SDS011;11967;50.852;4.400;2023-04-25T08:59:26;12.73;;;3.05;;
23578;SDS011;11967;50.852;4.400;2023-04-25T09:01:53;14.35;;;3.42;;
23578;SDS011;11967;50.852;4.400;2023-04-25T09:04:19;17.40;;;3.63;;
23578;SDS011;11967;50.852;4.400;2023-04-25T09:06:46;16.00;;;3.42;;
23578;SDS011;11967;50.852;4.400;2023-04-25T09:09:12;14.27;;;3.67;;
23578;SDS011;11967;50.852;4.400;2023-04-25T09:11:39;18.25;;;4.50;;
23578;SDS011;11967;50.852;4.400;2023-04-25T09:14:16;18.23;;;4.53;;
23578;SDS011;11967;50.852;4.400;2023-04-25T09:19:22;13.95;;;4.07;;
23578;SDS011;11967;50.852;4.400;2023-04-25T09:21:50;9.50;;;2.90;;
23578;SDS011;11967;50.852;4.400;2023-04-25T09:24:31;14.52;;;3.70;;
23578;SDS011;11967;50.852;4.400;2023-04-25T09:26:57;13.98;;;2.50;;
23578;SDS011;11967;50.852;4.400;2023-04-25T09:29:31;12.98;;;3.00;;
23578;SDS011;11967;50.852;4.400;2023-04-25T09:34:44;14.52;;;3.08;;
23578;SDS011;11967;50.852;4.400;2023-04-25T09:37:16;13.52;;;3.45;;
23578;SDS011;11967;50.852;4.400;2023-04-25T09:39:51;12.07;;;2.40;;
23578;SDS011;11967;50.852;4.400;2023-04-25T09:42:24;15.07;;;2.60;;
23578;SDS011;11967;50.852;4.400;2023-04-25T09:44:55;12.55;;;2.70;;
23578;SDS011;11967;50.852;4.400;2023-04-25T09:47:22;13.73;;;2.95;;
23578;SDS011;11967;50.852;4.400;2023-04-25T09:49:50;15.90;;;4.05;;
23578;SDS011;11967;50.852;4.400;2023-04-25T09:52:19;13.98;;;3.75;;
23578;SDS011;11967;50.852;4.400;2023-04-25T09:54:47;12.20;;;3.03;;
23578;SDS011;11967;50.852;4.400;2023-04-25T10:02:13;12.25;;;2.67;;
23578;SDS011;11967;50.852;4.400;2023-04-25T10:04:51;13.77;;;2.30;;
23578;SDS011;11967;50.852;4.400;2023-04-25T10:07:20;12.77;;;2.65;;
23578;SDS011;11967;50.852;4.400;2023-04-25T10:09:56;11.32;;;2.72;;
23578;SDS011;11967;50.852;4.400;2023-04-25T10:12:29;16.10;;;5.30;;
23578;SDS011;11967;50.852;4.400;2023-04-25T10:14:58;102.63;;;38.63;;
23578;SDS011;11967;50.852;4.400;2023-04-25T10:17:26;65.85;;;28.75;;
23578;SDS011;11967;50.852;4.400;2023-04-25T10:20:03;30.83;;;13.55;;
23578;SDS011;11967;50.852;4.400;2023-04-25T10:22:37;22.23;;;9.02;;
23578;SDS011;11967;50.852;4.400;2023-04-25T10:25:06;30.83;;;11.60;;
23578;SDS011;11967;50.852;4.400;2023-04-25T10:27:33;29.80;;;10.15;;
23578;SDS011;11967;50.852;4.400;2023-04-25T10:30:14;28.70;;;8.77;;
23578;SDS011;11967;50.852;4.400;2023-04-25T10:32:44;12.40;;;4.07;;
23578;SDS011;11967;50.852;4.400;2023-04-25T10:35:16;15.00;;;3.50;;
23578;SDS011;11967;50.852;4.400;2023-04-25T10:40:29;21.52;;;10.95;;
23578;SDS011;11967;50.852;4.400;2023-04-25T10:42:56;18.23;;;5.93;;
23578;SDS011;11967;50.852;4.400;2023-04-25T10:46:13;30.63;;;11.80;;
23578;SDS011;11967;50.852;4.400;2023-04-25T10:48:59;11.52;;;5.13;;
23578;SDS011;11967;50.852;4.400;2023-04-25T10:51:27;86.60;;;41.72;;
23578;SDS011;11967;50.852;4.400;2023-04-25T10:56:30;17.60;;;6.40;;
23578;SDS011;11967;50.852;4.400;2023-04-25T10:59:11;22.05;;;9.32;;
23578;SDS011;11967;50.852;4.400;2023-04-25T11:01:39;157.65;;;66.45;;
23578;SDS011;11967;50.852;4.400;2023-04-25T11:04:05;57.83;;;26.02;;
23578;SDS011;11967;50.852;4.400;2023-04-25T11:06:53;22.48;;;8.65;;
23578;SDS011;11967;50.852;4.400;2023-04-25T11:09:34;15.38;;;4.32;;
23578;SDS011;11967;50.852;4.400;2023-04-25T11:12:02;11.80;;;3.63;;
23578;SDS011;11967;50.852;4.400;2023-04-25T11:14:29;9.60;;;2.60;;
23578;SDS011;11967;50.852;4.400;2023-04-25T11:16:54;10.73;;;3.40;;
23578;SDS011;11967;50.852;4.400;2023-04-25T11:19:21;19.17;;;6.68;;
23578;SDS011;11967;50.852;4.400;2023-04-25T11:21:47;15.35;;;5.00;;
23578;SDS011;11967;50.852;4.400;2023-04-25T11:24:13;19.48;;;4.50;;
23578;SDS011;11967;50.852;4.400;2023-04-25T11:26:41;13.25;;;3.05;;
23578;SDS011;11967;50.852;4.400;2023-04-25T11:29:07;15.95;;;2.88;;
23578;SDS011;11967;50.852;4.400;2023-04-25T11:31:33;13.82;;;4.88;;
23578;SDS011;11967;50.852;4.400;2023-04-25T11:33:59;58.20;;;26.17;;
23578;SDS011;11967;50.852;4.400;2023-04-25T11:36:26;26.10;;;9.27;;
23578;SDS011;11967;50.852;4.400;2023-04-25T11:38:52;10.65;;;2.33;;
23578;SDS011;11967;50.852;4.400;2023-04-25T11:41:19;13.57;;;2.63;;
23578;SDS011;11967;50.852;4.400;2023-04-25T11:43:45;8.05;;;2.47;;
23578;SDS011;11967;50.852;4.400;2023-04-25T11:46:11;9.57;;;2.85;;
23578;SDS011;11967;50.852;4.400;2023-04-25T11:48:40;8.70;;;3.78;;
23578;SDS011;11967;50.852;4.400;2023-04-25T11:51:07;13.45;;;4.75;;
23578;SDS011;11967;50.852;4.400;2023-04-25T11:53:32;12.50;;;4.22;;
23578;SDS011;11967;50.852;4.400;2023-04-25T11:55:58;11.82;;;4.20;;
23578;SDS011;11967;50.852;4.400;2023-04-25T11:58:26;10.52;;;4.13;;
23578;SDS011;11967;50.852;4.400;2023-04-25T12:00:52;9.00;;;3.00;;
23578;SDS011;11967;50.852;4.400;2023-04-25T12:03:18;7.95;;;2.83;;
23578;SDS011;11967;50.852;4.400;2023-04-25T12:05:44;9.65;;;2.50;;
23578;SDS011;11967;50.852;4.400;2023-04-25T12:08:14;11.73;;;4.30;;
23578;SDS011;11967;50.852;4.400;2023-04-25T12:10:42;13.93;;;3.95;;
23578;SDS011;11967;50.852;4.400;2023-04-25T12:13:24;8.60;;;2.92;;
23578;SDS011;11967;50.852;4.400;2023-04-25T12:15:56;13.68;;;4.85;;
23578;SDS011;11967;50.852;4.400;2023-04-25T12:18:25;17.25;;;4.93;;
23578;SDS011;11967;50.852;4.400;2023-04-25T12:20:53;120.53;;;57.60;;
23578;SDS011;11967;50.852;4.400;2023-04-25T12:23:27;31.85;;;14.23;;
23578;SDS011;11967;50.852;4.400;2023-04-25T12:25:53;65.07;;;19.00;;
23578;SDS011;11967;50.852;4.400;2023-04-25T12:28:19;28.42;;;10.38;;
23578;SDS011;11967;50.852;4.400;2023-04-25T12:33:28;18.95;;;6.25;;
23578;SDS011;11967;50.852;4.400;2023-04-25T12:35:56;7.20;;;2.08;;
23578;SDS011;11967;50.852;4.400;2023-04-25T12:38:29;7.03;;;1.40;;
23578;SDS011;11967;50.852;4.400;2023-04-25T12:40:56;4.18;;;1.40;;
23578;SDS011;11967;50.852;4.400;2023-04-25T12:43:25;10.23;;;2.90;;
23578;SDS011;11967;50.852;4.400;2023-04-25T12:45:55;7.53;;;2.03;;
23578;SDS011;11967;50.852;4.400;2023-04-25T12:48:22;8.95;;;2.83;;
23578;SDS011;11967;50.852;4.400;2023-04-25T12:50:49;8.73;;;3.72;;
23578;SDS011;11967;50.852;4.400;2023-04-25T12:53:18;4.88;;;2.58;;
23578;SDS011;11967;50.852;4.400;2023-04-25T12:55:45;13.75;;;4.53;;
23578;SDS011;11967;50.852;4.400;2023-04-25T12:58:15;37.25;;;16.35;;
23578;SDS011;11967;50.852;4.400;2023-04-25T13:00:42;11.30;;;4.05;;
23578;SDS011;11967;50.852;4.400;2023-04-25T13:03:08;13.32;;;5.68;;
23578;SDS011;11967;50.852;4.400;2023-04-25T13:05:34;13.45;;;4.20;;
23578;SDS011;11967;50.852;4.400;2023-04-25T13:08:00;12.05;;;3.42;;
23578;SDS011;11967;50.852;4.400;2023-04-25T13:10:27;23.02;;;7.07;;
23578;SDS011;11967;50.852;4.400;2023-04-25T13:12:52;13.10;;;4.18;;
23578;SDS011;11967;50.852;4.400;2023-04-25T13:15:18;17.42;;;4.43;;
23578;SDS011;11967;50.852;4.400;2023-04-25T13:17:45;12.02;;;3.65;;
23578;SDS011;11967;50.852;4.400;2023-04-25T13:20:13;12.98;;;3.10;;
23578;SDS011;11967;50.852;4.400;2023-04-25T13:22:40;7.43;;;2.75;;
23578;SDS011;11967;50.852;4.400;2023-04-25T13:25:07;10.73;;;3.72;;
23578;SDS011;11967;50.852;4.400;2023-04-25T13:27:33;12.65;;;3.67;;
23578;SDS011;11967;50.852;4.400;2023-04-25T13:30:00;9.80;;;2.65;;
23578;SDS011;11967;50.852;4.400;2023-04-25T13:32:29;8.38;;;2.70;;
23578;SDS011;11967;50.852;4.400;2023-04-25T13:34:55;11.73;;;3.05;;
23578;SDS011;11967;50.852;4.400;2023-04-25T13:37:21;15.82;;;4.97;;
23578;SDS011;11967;50.852;4.400;2023-04-25T13:39:49;12.48;;;3.67;;
23578;SDS011;11967;50.852;4.400;2023-04-25T13:42:15;10.80;;;3.35;;
23578;SDS011;11967;50.852;4.400;2023-04-25T13:44:41;10.63;;;3.58;;
23578;SDS011;11967;50.852;4.400;2023-04-25T13:47:08;21.83;;;5.60;;
23578;SDS011;11967;50.852;4.400;2023-04-25T13:49:33;16.45;;;3.92;;
23578;SDS011;11967;50.852;4.400;2023-04-25T13:51:59;9.43;;;3.38;;
23578;SDS011;11967;50.852;4.400;2023-04-25T13:54:25;9.93;;;2.33;;
23578;SDS011;11967;50.852;4.400;2023-04-25T13:56:51;9.90;;;2.45;;
23578;SDS011;11967;50.852;4.400;2023-04-25T13:59:17;10.05;;;2.40;;
23578;SDS011;11967;50.852;4.400;2023-04-25T14:01:43;10.05;;;2.15;;
23578;SDS011;11967;50.852;4.400;2023-04-25T14:04:08;8.13;;;2.63;;
23578;SDS011;11967;50.852;4.400;2023-04-25T14:06:34;48.22;;;17.23;;
23578;SDS011;11967;50.852;4.400;2023-04-25T14:09:00;57.70;;;20.10;;
23578;SDS011;11967;50.852;4.400;2023-04-25T14:11:26;30.70;;;9.43;;
23578;SDS011;11967;50.852;4.400;2023-04-25T14:13:52;15.95;;;5.82;;
23578;SDS011;11967;50.852;4.400;2023-04-25T14:16:17;15.07;;;5.70;;
23578;SDS011;11967;50.852;4.400;2023-04-25T14:18:43;15.98;;;5.78;;
23578;SDS011;11967;50.852;4.400;2023-04-25T14:21:09;22.00;;;7.32;;
23578;SDS011;11967;50.852;4.400;2023-04-25T14:23:35;22.42;;;7.93;;
23578;SDS011;11967;50.852;4.400;2023-04-25T14:26:01;21.00;;;7.05;;
23578;SDS011;11967;50.852;4.400;2023-04-25T14:28:27;19.20;;;6.55;;
23578;SDS011;11967;50.852;4.400;2023-04-25T14:30:52;12.35;;;3.83;;
23578;SDS011;11967;50.852;4.400;2023-04-25T14:33:18;14.02;;;4.22;;
23578;SDS011;11967;50.852;4.400;2023-04-25T14:35:44;16.38;;;5.00;;
23578;SDS011;11967;50.852;4.400;2023-04-25T14:38:09;11.85;;;4.75;;
23578;SDS011;11967;50.852;4.400;2023-04-25T14:40:35;10.52;;;4.45;;
23578;SDS011;11967;50.852;4.400;2023-04-25T14:43:02;14.38;;;4.18;;
23578;SDS011;11967;50.852;4.400;2023-04-25T14:45:28;14.75;;;4.60;;
23578;SDS011;11967;50.852;4.400;2023-04-25T14:47:53;8.77;;;3.92;;
23578;SDS011;11967;50.852;4.400;2023-04-25T14:50:19;14.13;;;3.45;;
23578;SDS011;11967;50.852;4.400;2023-04-25T14:52:45;11.43;;;4.55;;